Necton, United Kingdom
Current Conditions -  °F | °C
As of 11:50 PM on Monday 24 Nov 2014 (Local Time) from EGYM Reporting Station
Moderate Fog Moderate Fog  
Wind Chill: 30°   Ceiling: Unl
Heat Index: 30°   Visibility: 0.18mi
Dew Point: 28°   Wind: 2mph
Humidity: 93%   Direction: 160°SSE
Pressure: 30.33"   Gusts: NA
Location:  52.65°N, 0.78°E
Report Text: EGYM 242350Z 16002KT 0300 FZFG FEW002 M01/M02 Q1027 RED
Loading
Personal Weather Stations






























Interactive Weather Map New forecast layout! Learn more

10-Day Weather Forecast

Advertisements
Track Severe Weather on mobile